BQB weather

Busselton Regional Airport
Western Australia, Australia

Public forecast

Using degrees Celsius for public forecast. Weather courtesy of forecast.io.

METAR (pilot weather report)

Closest report is Perth Jandakot Airport, 98.5 nm (182.5 km) NNE. Retrieved 2019/03/20 02:30 UTC (11 minutes ago):

YPJT 200230Z AUTO 25004KT 170V310 9999 // NCD 29/19 Q1012 RF00.0/000.0

TAF (pilot weather forecast)

Forecast is more than 12 hours old.

Closest forecast is Perth Jandakot Airport, 98.5 nm (182.5 km) NNE. Retrieved 2019/03/19 00:00 UTC (1 day ago):

TAF YPJT 192237Z 2000/2018 VRB03KT CAVOK FM200500 23010KT CAVOK FM201400 12014G24KT CAVOK